Black River (Missouri), Leeper (07062500)

StateMissouriLatestGood (777 cfs)
RiverBlack RiverRatingObservedEstimated
Updated2020-08-14 5:30 (56 minutes ago)Flood - The river is flooding. Obstacles can be treacherous or deadly. The river should be avoided at this stage for casual trips and definitely for the inexperienced. Trips should be attempted only with protective gear and equipment.Flood(none)3460
Discharge777 cfs (median: 336 cfs)High - The river is high and potentially dangerous, especially for the young and / or inexperienced. Normal stream obstacles are sometimes difficult to navigate. Extended distances can be attempted, but canoe travel may not be advisable.High(none)1125
Height3.22 feetGood - Conditions are ideal for a canoe or kayak. Boats typically will drag on fewer than one-quarter of riffles, if at all, and portages are unnecessary or rare. Normal float lengths can be attempted without a problem.Good(none)691
TrendRising (steady over 24 hours)Low - River is low but can still be floated. Some riffles are okay but most come with significant dragging and might need a portage. Float lengths should be reduced to accommodate low flow, dragging, and portages.Low(none)413
USGSExternal icon USGS Site (External icon Google Maps)Poor - River is too low to float comfortably. Most or all riffles will drag or must be portaged and some obstacles (such as slick shelf rock) cause undue problems. Avoid the river at this stage for casual paddling trips.Poor(none)218

Trending Data

Plot Image

Trips for Black River (Missouri), Leeper (07062500)

DateStartEndDistanceConditionDischargeHeightFishingDetails

A total of 0 rows are displayed.

Condition Descriptions

Fishing Conditions

Fish Species

Notes

Classic Trip List

The classic River Trips application is still available for use. It is updated with the new system using a data retrofit. It is no longer maintained. The original River Trips application is no longer updated (as of 1 Dec 2016) but can be checked for errors or for the condition of the data before it was converted to the new system.

Gauge Data Table

ObservationHeightDischargeMaximum
Discharge
Minimum
Discharge
Mean
Discharge
P05P10P20P25P50
(Median)
P75P80P90P95
2020-08-14 05:30 3.22 777 3840 (2013) 193 (1962) 624 197 218 252 258 336 642 738 1410 3130
2020-08-14 04:30 3.21 772 3840 (2013) 193 (1962) 624 197 218 252 258 336 642 738 1410 3130
2020-08-14 03:30 3.21 772 3840 (2013) 193 (1962) 624 197 218 252 258 336 642 738 1410 3130
2020-08-14 02:30 3.22 777 3840 (2013) 193 (1962) 624 197 218 252 258 336 642 738 1410 3130
2020-08-14 01:30 3.22 777 3840 (2013) 193 (1962) 624 197 218 252 258 336 642 738 1410 3130
2020-08-14 00:30 3.22 777 3840 (2013) 193 (1962) 624 197 218 252 258 336 642 738 1410 3130
2020-08-13 23:30 3.22 777 3770 (2013) 193 (1962) 612 198 221 253 264 333 475 572 1610 3200
2020-08-13 22:30 3.22 777 3770 (2013) 193 (1962) 612 198 221 253 264 333 475 572 1610 3200
2020-08-13 21:30 3.20 767 3770 (2013) 193 (1962) 612 198 221 253 264 333 475 572 1610 3200
2020-08-13 20:30 3.22 777 3770 (2013) 193 (1962) 612 198 221 253 264 333 475 572 1610 3200
2020-08-13 19:30 3.21 772 3770 (2013) 193 (1962) 612 198 221 253 264 333 475 572 1610 3200
2020-08-13 18:30 3.22 777 3770 (2013) 193 (1962) 612 198 221 253 264 333 475 572 1610 3200
2020-08-13 17:30 3.23 782 3770 (2013) 193 (1962) 612 198 221 253 264 333 475 572 1610 3200
2020-08-13 16:30 3.22 777 3770 (2013) 193 (1962) 612 198 221 253 264 333 475 572 1610 3200
2020-08-13 15:30 3.22 777 3770 (2013) 193 (1962) 612 198 221 253 264 333 475 572 1610 3200
2020-08-13 14:30 3.22 777 3770 (2013) 193 (1962) 612 198 221 253 264 333 475 572 1610 3200
2020-08-13 13:30 3.23 782 3770 (2013) 193 (1962) 612 198 221 253 264 333 475 572 1610 3200
2020-08-13 12:30 3.23 782 3770 (2013) 193 (1962) 612 198 221 253 264 333 475 572 1610 3200
2020-08-13 11:30 3.22 777 3770 (2013) 193 (1962) 612 198 221 253 264 333 475 572 1610 3200
2020-08-13 10:30 3.24 787 3770 (2013) 193 (1962) 612 198 221 253 264 333 475 572 1610 3200
2020-08-13 09:30 3.22 777 3770 (2013) 193 (1962) 612 198 221 253 264 333 475 572 1610 3200
2020-08-13 08:30 3.23 782 3770 (2013) 193 (1962) 612 198 221 253 264 333 475 572 1610 3200
2020-08-13 07:30 3.22 777 3770 (2013) 193 (1962) 612 198 221 253 264 333 475 572 1610 3200
2020-08-13 06:30 3.23 782 3770 (2013) 193 (1962) 612 198 221 253 264 333 475 572 1610 3200
2020-08-13 05:30 3.25 791 3770 (2013) 193 (1962) 612 198 221 253 264 333 475 572 1610 3200
2020-08-13 04:30 3.22 777 3770 (2013) 193 (1962) 612 198 221 253 264 333 475 572 1610 3200
2020-08-13 03:30 3.21 772 3770 (2013) 193 (1962) 612 198 221 253 264 333 475 572 1610 3200
2020-08-13 02:30 3.22 777 3770 (2013) 193 (1962) 612 198 221 253 264 333 475 572 1610 3200
2020-08-13 01:30 3.22 777 3770 (2013) 193 (1962) 612 198 221 253 264 333 475 572 1610 3200
2020-08-13 00:30 3.23 782 3770 (2013) 193 (1962) 612 198 221 253 264 333 475 572 1610 3200
2020-08-12 23:30 3.22 777 3530 (2013) 193 (1962) 619 198 220 251 259 334 469 627 1630 3270
2020-08-12 22:30 3.22 777 3530 (2013) 193 (1962) 619 198 220 251 259 334 469 627 1630 3270
2020-08-12 21:30 3.22 777 3530 (2013) 193 (1962) 619 198 220 251 259 334 469 627 1630 3270
2020-08-12 20:30 3.23 782 3530 (2013) 193 (1962) 619 198 220 251 259 334 469 627 1630 3270
2020-08-12 19:30 3.22 777 3530 (2013) 193 (1962) 619 198 220 251 259 334 469 627 1630 3270
2020-08-12 18:30 3.23 782 3530 (2013) 193 (1962) 619 198 220 251 259 334 469 627 1630 3270
2020-08-12 17:30 3.21 772 3530 (2013) 193 (1962) 619 198 220 251 259 334 469 627 1630 3270
2020-08-12 16:30 3.20 767 3530 (2013) 193 (1962) 619 198 220 251 259 334 469 627 1630 3270
2020-08-12 15:30 3.18 758 3530 (2013) 193 (1962) 619 198 220 251 259 334 469 627 1630 3270
2020-08-12 14:30 3.17 753 3530 (2013) 193 (1962) 619 198 220 251 259 334 469 627 1630 3270
2020-08-12 13:30 3.17 753 3530 (2013) 193 (1962) 619 198 220 251 259 334 469 627 1630 3270
2020-08-12 12:30 3.14 739 3530 (2013) 193 (1962) 619 198 220 251 259 334 469 627 1630 3270
2020-08-12 11:30 3.11 725 3530 (2013) 193 (1962) 619 198 220 251 259 334 469 627 1630 3270
2020-08-12 10:30 3.11 725 3530 (2013) 193 (1962) 619 198 220 251 259 334 469 627 1630 3270
2020-08-12 09:30 3.12 730 3530 (2013) 193 (1962) 619 198 220 251 259 334 469 627 1630 3270
2020-08-12 08:30 3.11 725 3530 (2013) 193 (1962) 619 198 220 251 259 334 469 627 1630 3270
2020-08-12 07:30 3.10 720 3530 (2013) 193 (1962) 619 198 220 251 259 334 469 627 1630 3270
2020-08-12 06:30 3.11 725 3530 (2013) 193 (1962) 619 198 220 251 259 334 469 627 1630 3270
2020-08-12 05:30 3.11 725 3530 (2013) 193 (1962) 619 198 220 251 259 334 469 627 1630 3270
2020-08-12 04:30 3.12 730 3530 (2013) 193 (1962) 619 198 220 251 259 334 469 627 1630 3270
2020-08-12 03:30 3.13 734 3530 (2013) 193 (1962) 619 198 220 251 259 334 469 627 1630 3270
2020-08-12 02:30 3.14 739 3530 (2013) 193 (1962) 619 198 220 251 259 334 469 627 1630 3270
2020-08-12 01:30 3.14 739 3530 (2013) 193 (1962) 619 198 220 251 259 334 469 627 1630 3270
2020-08-12 00:30 3.16 748 3530 (2013) 193 (1962) 619 198 220 251 259 334 469 627 1630 3270
2020-08-11 23:30 3.16 748 3360 (1951) 193 (1962) 582 199 218 248 256 337 459 534 1240 3040
2020-08-11 22:30 3.18 758 3360 (1951) 193 (1962) 582 199 218 248 256 337 459 534 1240 3040
2020-08-11 21:30 3.17 753 3360 (1951) 193 (1962) 582 199 218 248 256 337 459 534 1240 3040
2020-08-11 20:30 3.19 763 3360 (1951) 193 (1962) 582 199 218 248 256 337 459 534 1240 3040
2020-08-11 19:30 3.20 767 3360 (1951) 193 (1962) 582 199 218 248 256 337 459 534 1240 3040
2020-08-11 18:30 3.23 782 3360 (1951) 193 (1962) 582 199 218 248 256 337 459 534 1240 3040
2020-08-11 17:30 3.26 796 3360 (1951) 193 (1962) 582 199 218 248 256 337 459 534 1240 3040
2020-08-11 16:30 3.29 811 3360 (1951) 193 (1962) 582 199 218 248 256 337 459 534 1240 3040
2020-08-11 15:30 3.32 825 3360 (1951) 193 (1962) 582 199 218 248 256 337 459 534 1240 3040
2020-08-11 14:30 3.37 850 3360 (1951) 193 (1962) 582 199 218 248 256 337 459 534 1240 3040
2020-08-11 13:30 3.44 885 3360 (1951) 193 (1962) 582 199 218 248 256 337 459 534 1240 3040
2020-08-11 12:30 3.49 911 3360 (1951) 193 (1962) 582 199 218 248 256 337 459 534 1240 3040
2020-08-11 11:30 3.57 952 3360 (1951) 193 (1962) 582 199 218 248 256 337 459 534 1240 3040
2020-08-11 10:30 3.61 973 3360 (1951) 193 (1962) 582 199 218 248 256 337 459 534 1240 3040
2020-08-11 09:30 3.60 967 3360 (1951) 193 (1962) 582 199 218 248 256 337 459 534 1240 3040
2020-08-11 08:30 3.63 983 3360 (1951) 193 (1962) 582 199 218 248 256 337 459 534 1240 3040
2020-08-11 07:30 3.62 978 3360 (1951) 193 (1962) 582 199 218 248 256 337 459 534 1240 3040
2020-08-11 06:30 3.62 978 3360 (1951) 193 (1962) 582 199 218 248 256 337 459 534 1240 3040
2020-08-11 05:30 3.63 983 3360 (1951) 193 (1962) 582 199 218 248 256 337 459 534 1240 3040
2020-08-11 04:30 3.64 988 3360 (1951) 193 (1962) 582 199 218 248 256 337 459 534 1240 3040
2020-08-11 03:30 3.65 994 3360 (1951) 193 (1962) 582 199 218 248 256 337 459 534 1240 3040
2020-08-11 02:30 3.65 994 3360 (1951) 193 (1962) 582 199 218 248 256 337 459 534 1240 3040
2020-08-11 01:30 3.66 999 3360 (1951) 193 (1962) 582 199 218 248 256 337 459 534 1240 3040
2020-08-11 00:30 3.67 1000 3360 (1951) 193 (1962) 582 199 218 248 256 337 459 534 1240 3040
2020-08-10 23:30 3.68 1010 3440 (1951) 194 (1954) 557 201 226 247 255 328 454 528 1270 2840
2020-08-10 22:30 3.68 1010 3440 (1951) 194 (1954) 557 201 226 247 255 328 454 528 1270 2840
2020-08-10 21:30 3.70 1020 3440 (1951) 194 (1954) 557 201 226 247 255 328 454 528 1270 2840
2020-08-10 20:30 3.70 1020 3440 (1951) 194 (1954) 557 201 226 247 255 328 454 528 1270 2840
2020-08-10 19:30 3.72 1030 3440 (1951) 194 (1954) 557 201 226 247 255 328 454 528 1270 2840
2020-08-10 18:30 3.76 1050 3440 (1951) 194 (1954) 557 201 226 247 255 328 454 528 1270 2840
2020-08-10 17:30 3.78 1060 3440 (1951) 194 (1954) 557 201 226 247 255 328 454 528 1270 2840
2020-08-10 16:30 3.84 1100 3440 (1951) 194 (1954) 557 201 226 247 255 328 454 528 1270 2840
2020-08-10 15:30 3.90 1130 3440 (1951) 194 (1954) 557 201 226 247 255 328 454 528 1270 2840
2020-08-10 14:30 4.01 1190 3440 (1951) 194 (1954) 557 201 226 247 255 328 454 528 1270 2840
2020-08-10 13:30 4.09 1240 3440 (1951) 194 (1954) 557 201 226 247 255 328 454 528 1270 2840
2020-08-10 12:30 4.24 1320 3440 (1951) 194 (1954) 557 201 226 247 255 328 454 528 1270 2840
2020-08-10 11:30 4.33 1380 3440 (1951) 194 (1954) 557 201 226 247 255 328 454 528 1270 2840
2020-08-10 10:30 4.41 1430 3440 (1951) 194 (1954) 557 201 226 247 255 328 454 528 1270 2840
2020-08-10 09:30 4.41 1430 3440 (1951) 194 (1954) 557 201 226 247 255 328 454 528 1270 2840
2020-08-10 08:30 4.42 1430 3440 (1951) 194 (1954) 557 201 226 247 255 328 454 528 1270 2840
2020-08-10 07:30 4.43 1440 3440 (1951) 194 (1954) 557 201 226 247 255 328 454 528 1270 2840
2020-08-10 06:30 4.43 1440 3440 (1951) 194 (1954) 557 201 226 247 255 328 454 528 1270 2840
2020-08-10 05:30 4.43 1440 3440 (1951) 194 (1954) 557 201 226 247 255 328 454 528 1270 2840
2020-08-10 04:30 4.43 1440 3440 (1951) 194 (1954) 557 201 226 247 255 328 454 528 1270 2840
2020-08-10 03:30 4.43 1440 3440 (1951) 194 (1954) 557 201 226 247 255 328 454 528 1270 2840
2020-08-10 02:30 4.41 1430 3440 (1951) 194 (1954) 557 201 226 247 255 328 454 528 1270 2840
2020-08-10 01:30 4.45 1450 3440 (1951) 194 (1954) 557 201 226 247 255 328 454 528 1270 2840
2020-08-10 00:30 4.44 1440 3440 (1951) 194 (1954) 557 201 226 247 255 328 454 528 1270 2840
2020-08-09 23:30 4.43 1440 3440 (1951) 194 (1954) 571 211 221 234 254 340 480 668 1440 2240
2020-08-09 22:30 4.44 1440 3440 (1951) 194 (1954) 571 211 221 234 254 340 480 668 1440 2240
2020-08-09 21:30 4.44 1440 3440 (1951) 194 (1954) 571 211 221 234 254 340 480 668 1440 2240
2020-08-09 20:30 4.42 1430 3440 (1951) 194 (1954) 571 211 221 234 254 340 480 668 1440 2240
2020-08-09 19:30 4.43 1440 3440 (1951) 194 (1954) 571 211 221 234 254 340 480 668 1440 2240
2020-08-09 18:30 4.43 1440 3440 (1951) 194 (1954) 571 211 221 234 254 340 480 668 1440 2240
2020-08-09 17:30 4.44 1440 3440 (1951) 194 (1954) 571 211 221 234 254 340 480 668 1440 2240
2020-08-09 16:30 4.43 1440 3440 (1951) 194 (1954) 571 211 221 234 254 340 480 668 1440 2240
2020-08-09 15:30 4.44 1440 3440 (1951) 194 (1954) 571 211 221 234 254 340 480 668 1440 2240
2020-08-09 14:30 4.45 1450 3440 (1951) 194 (1954) 571 211 221 234 254 340 480 668 1440 2240
2020-08-09 13:30 4.44 1440 3440 (1951) 194 (1954) 571 211 221 234 254 340 480 668 1440 2240
2020-08-09 12:30 4.45 1450 3440 (1951) 194 (1954) 571 211 221 234 254 340 480 668 1440 2240
2020-08-09 11:30 4.46 1460 3440 (1951) 194 (1954) 571 211 221 234 254 340 480 668 1440 2240
2020-08-09 10:30 4.47 1460 3440 (1951) 194 (1954) 571 211 221 234 254 340 480 668 1440 2240
2020-08-09 09:30 4.46 1460 3440 (1951) 194 (1954) 571 211 221 234 254 340 480 668 1440 2240
2020-08-09 08:30 4.48 1470 3440 (1951) 194 (1954) 571 211 221 234 254 340 480 668 1440 2240
2020-08-09 07:30 4.44 1440 3440 (1951) 194 (1954) 571 211 221 234 254 340 480 668 1440 2240
2020-08-09 06:30 4.45 1450 3440 (1951) 194 (1954) 571 211 221 234 254 340 480 668 1440 2240
2020-08-09 05:30 4.46 1460 3440 (1951) 194 (1954) 571 211 221 234 254 340 480 668 1440 2240
2020-08-09 04:30 4.46 1460 3440 (1951) 194 (1954) 571 211 221 234 254 340 480 668 1440 2240
2020-08-09 03:30 4.48 1470 3440 (1951) 194 (1954) 571 211 221 234 254 340 480 668 1440 2240
2020-08-09 02:30 4.46 1460 3440 (1951) 194 (1954) 571 211 221 234 254 340 480 668 1440 2240
2020-08-09 01:30 4.47 1460 3440 (1951) 194 (1954) 571 211 221 234 254 340 480 668 1440 2240
2020-08-09 00:30 4.46 1460 3440 (1951) 194 (1954) 571 211 221 234 254 340 480 668 1440 2240
2020-08-08 23:30 4.47 1460 3530 (1951) 198 (1954) 566 212 225 240 250 329 476 588 1530 2020
2020-08-08 22:30 4.47 1460 3530 (1951) 198 (1954) 566 212 225 240 250 329 476 588 1530 2020
2020-08-08 21:30 4.49 1470 3530 (1951) 198 (1954) 566 212 225 240 250 329 476 588 1530 2020
2020-08-08 20:30 4.51 1490 3530 (1951) 198 (1954) 566 212 225 240 250 329 476 588 1530 2020
2020-08-08 19:30 4.51 1490 3530 (1951) 198 (1954) 566 212 225 240 250 329 476 588 1530 2020
2020-08-08 18:30 4.51 1490 3530 (1951) 198 (1954) 566 212 225 240 250 329 476 588 1530 2020
2020-08-08 17:30 4.51 1490 3530 (1951) 198 (1954) 566 212 225 240 250 329 476 588 1530 2020
2020-08-08 16:30 4.52 1490 3530 (1951) 198 (1954) 566 212 225 240 250 329 476 588 1530 2020
2020-08-08 15:30 4.52 1490 3530 (1951) 198 (1954) 566 212 225 240 250 329 476 588 1530 2020
2020-08-08 14:30 4.51 1490 3530 (1951) 198 (1954) 566 212 225 240 250 329 476 588 1530 2020
2020-08-08 13:30 4.52 1490 3530 (1951) 198 (1954) 566 212 225 240 250 329 476 588 1530 2020
2020-08-08 12:30 4.52 1490 3530 (1951) 198 (1954) 566 212 225 240 250 329 476 588 1530 2020
2020-08-08 11:30 4.53 1500 3530 (1951) 198 (1954) 566 212 225 240 250 329 476 588 1530 2020
2020-08-08 10:30 4.52 1490 3530 (1951) 198 (1954) 566 212 225 240 250 329 476 588 1530 2020
2020-08-08 09:30 4.53 1500 3530 (1951) 198 (1954) 566 212 225 240 250 329 476 588 1530 2020
2020-08-08 08:30 4.54 1510 3530 (1951) 198 (1954) 566 212 225 240 250 329 476 588 1530 2020
2020-08-08 07:30 4.53 1500 3530 (1951) 198 (1954) 566 212 225 240 250 329 476 588 1530 2020
2020-08-08 06:30 4.53 1500 3530 (1951) 198 (1954) 566 212 225 240 250 329 476 588 1530 2020
2020-08-08 05:30 4.53 1500 3530 (1951) 198 (1954) 566 212 225 240 250 329 476 588 1530 2020
2020-08-08 04:30 4.54 1510 3530 (1951) 198 (1954) 566 212 225 240 250 329 476 588 1530 2020
2020-08-08 03:30 4.54 1510 3530 (1951) 198 (1954) 566 212 225 240 250 329 476 588 1530 2020
2020-08-08 02:30 4.55 1510 3530 (1951) 198 (1954) 566 212 225 240 250 329 476 588 1530 2020
2020-08-08 01:30 4.55 1510 3530 (1951) 198 (1954) 566 212 225 240 250 329 476 588 1530 2020
2020-08-08 00:30 4.54 1510 3530 (1951) 198 (1954) 566 212 225 240 250 329 476 588 1530 2020
2020-08-07 23:30 4.55 1510 3620 (1951) 201 (1954) 582 221 229 248 257 348 448 505 1600 2360
2020-08-07 22:30 4.55 1510 3620 (1951) 201 (1954) 582 221 229 248 257 348 448 505 1600 2360
2020-08-07 21:30 4.56 1520 3620 (1951) 201 (1954) 582 221 229 248 257 348 448 505 1600 2360
2020-08-07 20:30 4.56 1520 3620 (1951) 201 (1954) 582 221 229 248 257 348 448 505 1600 2360
2020-08-07 19:30 4.58 1530 3620 (1951) 201 (1954) 582 221 229 248 257 348 448 505 1600 2360
2020-08-07 18:30 4.58 1530 3620 (1951) 201 (1954) 582 221 229 248 257 348 448 505 1600 2360
2020-08-07 17:30 4.60 1540 3620 (1951) 201 (1954) 582 221 229 248 257 348 448 505 1600 2360
2020-08-07 16:30 4.61 1550 3620 (1951) 201 (1954) 582 221 229 248 257 348 448 505 1600 2360
2020-08-07 15:30 4.64 1570 3620 (1951) 201 (1954) 582 221 229 248 257 348 448 505 1600 2360
2020-08-07 14:30 4.68 1590 3620 (1951) 201 (1954) 582 221 229 248 257 348 448 505 1600 2360
2020-08-07 13:30 4.73 1630 3620 (1951) 201 (1954) 582 221 229 248 257 348 448 505 1600 2360
2020-08-07 12:30 4.78 1660 3620 (1951) 201 (1954) 582 221 229 248 257 348 448 505 1600 2360
2020-08-07 11:30 4.84 1700 3620 (1951) 201 (1954) 582 221 229 248 257 348 448 505 1600 2360
2020-08-07 10:30 4.85 1700 3620 (1951) 201 (1954) 582 221 229 248 257 348 448 505 1600 2360
2020-08-07 09:30 4.87 1720 3620 (1951) 201 (1954) 582 221 229 248 257 348 448 505 1600 2360
2020-08-07 08:30 4.86 1710 3620 (1951) 201 (1954) 582 221 229 248 257 348 448 505 1600 2360
2020-08-07 07:30 4.88 1720 3620 (1951) 201 (1954) 582 221 229 248 257 348 448 505 1600 2360
2020-08-07 06:30 4.87 1720 3620 (1951) 201 (1954) 582 221 229 248 257 348 448 505 1600 2360
2020-08-07 05:30 4.88 1720 3620 (1951) 201 (1954) 582 221 229 248 257 348 448 505 1600 2360
2020-08-07 04:30 4.86 1710 3620 (1951) 201 (1954) 582 221 229 248 257 348 448 505 1600 2360
2020-08-07 03:30 4.87 1720 3620 (1951) 201 (1954) 582 221 229 248 257 348 448 505 1600 2360
2020-08-07 02:30 4.88 1720 3620 (1951) 201 (1954) 582 221 229 248 257 348 448 505 1600 2360
2020-08-07 01:30 4.87 1720 3620 (1951) 201 (1954) 582 221 229 248 257 348 448 505 1600 2360
2020-08-07 00:30 4.87 1720 3620 (1951) 201 (1954) 582 221 229 248 257 348 448 505 1600 2360
2020-08-06 23:30 4.88 1720 3360 (1951) 203 (1954) 553 220 231 253 258 343 503 550 1220 2020
2020-08-06 22:30 4.89 1730 3360 (1951) 203 (1954) 553 220 231 253 258 343 503 550 1220 2020
2020-08-06 21:30 4.87 1720 3360 (1951) 203 (1954) 553 220 231 253 258 343 503 550 1220 2020
2020-08-06 20:30 4.88 1720 3360 (1951) 203 (1954) 553 220 231 253 258 343 503 550 1220 2020
2020-08-06 19:30 4.87 1720 3360 (1951) 203 (1954) 553 220 231 253 258 343 503 550 1220 2020
2020-08-06 18:30 4.88 1720 3360 (1951) 203 (1954) 553 220 231 253 258 343 503 550 1220 2020
2020-08-06 17:30 4.88 1720 3360 (1951) 203 (1954) 553 220 231 253 258 343 503 550 1220 2020
2020-08-06 16:30 4.88 1720 3360 (1951) 203 (1954) 553 220 231 253 258 343 503 550 1220 2020
2020-08-06 15:30 4.87 1720 3360 (1951) 203 (1954) 553 220 231 253 258 343 503 550 1220 2020
2020-08-06 14:30 4.88 1720 3360 (1951) 203 (1954) 553 220 231 253 258 343 503 550 1220 2020
2020-08-06 13:30 4.86 1710 3360 (1951) 203 (1954) 553 220 231 253 258 343 503 550 1220 2020
2020-08-06 12:30 4.88 1720 3360 (1951) 203 (1954) 553 220 231 253 258 343 503 550 1220 2020
2020-08-06 11:30 4.87 1720 3360 (1951) 203 (1954) 553 220 231 253 258 343 503 550 1220 2020
2020-08-06 10:30 4.87 1720 3360 (1951) 203 (1954) 553 220 231 253 258 343 503 550 1220 2020
2020-08-06 09:30 4.87 1720 3360 (1951) 203 (1954) 553 220 231 253 258 343 503 550 1220 2020
2020-08-06 08:30 4.86 1710 3360 (1951) 203 (1954) 553 220 231 253 258 343 503 550 1220 2020
2020-08-06 07:30 4.87 1720 3360 (1951) 203 (1954) 553 220 231 253 258 343 503 550 1220 2020
2020-08-06 06:30 4.87 1720 3360 (1951) 203 (1954) 553 220 231 253 258 343 503 550 1220 2020
2020-08-06 05:30 4.86 1710 3360 (1951) 203 (1954) 553 220 231 253 258 343 503 550 1220 2020
2020-08-06 04:30 4.84 1700 3360 (1951) 203 (1954) 553 220 231 253 258 343 503 550 1220 2020
2020-08-06 03:30 4.84 1700 3360 (1951) 203 (1954) 553 220 231 253 258 343 503 550 1220 2020
2020-08-06 02:30 4.83 1690 3360 (1951) 203 (1954) 553 220 231 253 258 343 503 550 1220 2020
2020-08-06 01:30 4.81 1680 3360 (1951) 203 (1954) 553 220 231 253 258 343 503 550 1220 2020
2020-08-06 00:30 4.80 1670 3360 (1951) 203 (1954) 553 220 231 253 258 343 503 550 1220 2020
2020-08-05 23:30 4.74 1630 3280 (1951) 194 (1954) 546 220 230 255 270 337 466 517 1210 1960
2020-08-05 22:30 4.70 1610 3280 (1951) 194 (1954) 546 220 230 255 270 337 466 517 1210 1960
2020-08-05 21:30 4.65 1570 3280 (1951) 194 (1954) 546 220 230 255 270 337 466 517 1210 1960
2020-08-05 20:30 4.58 1530 3280 (1951) 194 (1954) 546 220 230 255 270 337 466 517 1210 1960
2020-08-05 19:30 4.51 1490 3280 (1951) 194 (1954) 546 220 230 255 270 337 466 517 1210 1960
2020-08-05 18:30 4.49 1470 3280 (1951) 194 (1954) 546 220 230 255 270 337 466 517 1210 1960
2020-08-05 17:30 4.48 1470 3280 (1951) 194 (1954) 546 220 230 255 270 337 466 517 1210 1960
2020-08-05 16:30 4.48 1470 3280 (1951) 194 (1954) 546 220 230 255 270 337 466 517 1210 1960
2020-08-05 15:30 4.48 1470 3280 (1951) 194 (1954) 546 220 230 255 270 337 466 517 1210 1960
2020-08-05 14:30 4.48 1470 3280 (1951) 194 (1954) 546 220 230 255 270 337 466 517 1210 1960
2020-08-05 13:30 4.47 1460 3280 (1951) 194 (1954) 546 220 230 255 270 337 466 517 1210 1960
2020-08-05 12:30 4.47 1460 3280 (1951) 194 (1954) 546 220 230 255 270 337 466 517 1210 1960
2020-08-05 11:30 4.49 1470 3280 (1951) 194 (1954) 546 220 230 255 270 337 466 517 1210 1960
2020-08-05 10:30 4.48 1470 3280 (1951) 194 (1954) 546 220 230 255 270 337 466 517 1210 1960
2020-08-05 09:30 4.47 1460 3280 (1951) 194 (1954) 546 220 230 255 270 337 466 517 1210 1960
2020-08-05 08:30 4.48 1470 3280 (1951) 194 (1954) 546 220 230 255 270 337 466 517 1210 1960
2020-08-05 07:30 4.47 1460 3280 (1951) 194 (1954) 546 220 230 255 270 337 466 517 1210 1960
2020-08-05 06:30 4.49 1470 3280 (1951) 194 (1954) 546 220 230 255 270 337 466 517 1210 1960
2020-08-05 05:30 4.48 1470 3280 (1951) 194 (1954) 546 220 230 255 270 337 466 517 1210 1960
2020-08-05 04:30 4.47 1460 3280 (1951) 194 (1954) 546 220 230 255 270 337 466 517 1210 1960
2020-08-05 03:30 4.46 1460 3280 (1951) 194 (1954) 546 220 230 255 270 337 466 517 1210 1960
2020-08-05 02:30 4.47 1460 3280 (1951) 194 (1954) 546 220 230 255 270 337 466 517 1210 1960
2020-08-05 01:30 4.46 1460 3280 (1951) 194 (1954) 546 220 230 255 270 337 466 517 1210 1960
2020-08-05 00:30 4.46 1460 3280 (1951) 194 (1954) 546 220 230 255 270 337 466 517 1210 1960
2020-08-04 23:30 4.47 1460 3340 (1957) 186 (1954) 535 219 224 253 265 338 450 498 1200 1980
2020-08-04 22:30 4.45 1450 3340 (1957) 186 (1954) 535 219 224 253 265 338 450 498 1200 1980
2020-08-04 21:30 4.43 1440 3340 (1957) 186 (1954) 535 219 224 253 265 338 450 498 1200 1980
2020-08-04 20:30 4.43 1440 3340 (1957) 186 (1954) 535 219 224 253 265 338 450 498 1200 1980
2020-08-04 19:30 4.43 1440 3340 (1957) 186 (1954) 535 219 224 253 265 338 450 498 1200 1980
2020-08-04 18:30 4.43 1440 3340 (1957) 186 (1954) 535 219 224 253 265 338 450 498 1200 1980
2020-08-04 17:30 4.39 1410 3340 (1957) 186 (1954) 535 219 224 253 265 338 450 498 1200 1980
2020-08-04 16:30 4.38 1410 3340 (1957) 186 (1954) 535 219 224 253 265 338 450 498 1200 1980
2020-08-04 15:30 4.35 1390 3340 (1957) 186 (1954) 535 219 224 253 265 338 450 498 1200 1980
2020-08-04 14:30 4.32 1370 3340 (1957) 186 (1954) 535 219 224 253 265 338 450 498 1200 1980
2020-08-04 13:30 4.28 1350 3340 (1957) 186 (1954) 535 219 224 253 265 338 450 498 1200 1980
2020-08-04 12:30 4.22 1310 3340 (1957) 186 (1954) 535 219 224 253 265 338 450 498 1200 1980
2020-08-04 11:30 4.15 1270 3340 (1957) 186 (1954) 535 219 224 253 265 338 450 498 1200 1980
2020-08-04 10:30 4.14 1270 3340 (1957) 186 (1954) 535 219 224 253 265 338 450 498 1200 1980
2020-08-04 09:30 4.12 1250 3340 (1957) 186 (1954) 535 219 224 253 265 338 450 498 1200 1980
2020-08-04 08:30 4.12 1250 3340 (1957) 186 (1954) 535 219 224 253 265 338 450 498 1200 1980
2020-08-04 07:30 4.12 1250 3340 (1957) 186 (1954) 535 219 224 253 265 338 450 498 1200 1980
2020-08-04 06:30 4.12 1250 3340 (1957) 186 (1954) 535 219 224 253 265 338 450 498 1200 1980
2020-08-04 05:30 4.11 1250 3340 (1957) 186 (1954) 535 219 224 253 265 338 450 498 1200 1980
2020-08-04 04:30 4.11 1250 3340 (1957) 186 (1954) 535 219 224 253 265 338 450 498 1200 1980
2020-08-04 03:30 4.11 1250 3340 (1957) 186 (1954) 535 219 224 253 265 338 450 498 1200 1980
2020-08-04 02:30 4.11 1250 3340 (1957) 186 (1954) 535 219 224 253 265 338 450 498 1200 1980
2020-08-04 01:30 4.09 1240 3340 (1957) 186 (1954) 535 219 224 253 265 338 450 498 1200 1980
2020-08-04 00:30 4.08 1230 3340 (1957) 186 (1954) 535 219 224 253 265 338 450 498 1200 1980
2020-08-03 23:30 4.08 1230 3280 (1951) 188 (1954) 560 213 226 252 267 341 483 551 1230 2000
2020-08-03 22:30 4.06 1220 3280 (1951) 188 (1954) 560 213 226 252 267 341 483 551 1230 2000
2020-08-03 21:30 4.05 1210 3280 (1951) 188 (1954) 560 213 226 252 267 341 483 551 1230 2000
2020-08-03 20:30 4.03 1200 3280 (1951) 188 (1954) 560 213 226 252 267 341 483 551 1230 2000
2020-08-03 19:30 4.02 1200 3280 (1951) 188 (1954) 560 213 226 252 267 341 483 551 1230 2000
2020-08-03 18:30 3.96 1160 3280 (1951) 188 (1954) 560 213 226 252 267 341 483 551 1230 2000
2020-08-03 17:30 3.94 1150 3280 (1951) 188 (1954) 560 213 226 252 267 341 483 551 1230 2000
2020-08-03 16:30 3.87 1110 3280 (1951) 188 (1954) 560 213 226 252 267 341 483 551 1230 2000
2020-08-03 15:30 3.80 1070 3280 (1951) 188 (1954) 560 213 226 252 267 341 483 551 1230 2000
2020-08-03 14:30 3.70 1020 3280 (1951) 188 (1954) 560 213 226 252 267 341 483 551 1230 2000
2020-08-03 13:30 3.59 962 3280 (1951) 188 (1954) 560 213 226 252 267 341 483 551 1230 2000
2020-08-03 12:30 3.43 880 3280 (1951) 188 (1954) 560 213 226 252 267 341 483 551 1230 2000
2020-08-03 11:30 3.28 806 3280 (1951) 188 (1954) 560 213 226 252 267 341 483 551 1230 2000
2020-08-03 10:30 3.16 748 3280 (1951) 188 (1954) 560 213 226 252 267 341 483 551 1230 2000
2020-08-03 09:30 3.15 744 3280 (1951) 188 (1954) 560 213 226 252 267 341 483 551 1230 2000
2020-08-03 08:30 3.13 734 3280 (1951) 188 (1954) 560 213 226 252 267 341 483 551 1230 2000
2020-08-03 07:30 3.14 739 3280 (1951) 188 (1954) 560 213 226 252 267 341 483 551 1230 2000
2020-08-03 06:30 3.14 739 3280 (1951) 188 (1954) 560 213 226 252 267 341 483 551 1230 2000
2020-08-03 05:30 3.14 739 3280 (1951) 188 (1954) 560 213 226 252 267 341 483 551 1230 2000
2020-08-03 04:30 3.14 739 3280 (1951) 188 (1954) 560 213 226 252 267 341 483 551 1230 2000
2020-08-03 03:30 3.15 744 3280 (1951) 188 (1954) 560 213 226 252 267 341 483 551 1230 2000
2020-08-03 02:30 3.15 744 3280 (1951) 188 (1954) 560 213 226 252 267 341 483 551 1230 2000
2020-08-03 01:30 3.14 739 3280 (1951) 188 (1954) 560 213 226 252 267 341 483 551 1230 2000
2020-08-03 00:30 3.15 744 3280 (1951) 188 (1954) 560 213 226 252 267 341 483 551 1230 2000
2020-08-02 23:30 3.15 744 3360 (1951) 190 (1954) 582 221 229 251 266 344 523 558 1470 2010
2020-08-02 22:30 3.14 739 3360 (1951) 190 (1954) 582 221 229 251 266 344 523 558 1470 2010
2020-08-02 21:30 3.15 744 3360 (1951) 190 (1954) 582 221 229 251 266 344 523 558 1470 2010
2020-08-02 20:30 3.15 744 3360 (1951) 190 (1954) 582 221 229 251 266 344 523 558 1470 2010
2020-08-02 19:30 3.14 739 3360 (1951) 190 (1954) 582 221 229 251 266 344 523 558 1470 2010
2020-08-02 18:30 3.14 739 3360 (1951) 190 (1954) 582 221 229 251 266 344 523 558 1470 2010
2020-08-02 17:30 3.14 739 3360 (1951) 190 (1954) 582 221 229 251 266 344 523 558 1470 2010
2020-08-02 16:30 3.14 739 3360 (1951) 190 (1954) 582 221 229 251 266 344 523 558 1470 2010
2020-08-02 15:30 3.14 739 3360 (1951) 190 (1954) 582 221 229 251 266 344 523 558 1470 2010
2020-08-02 14:30 3.15 744 3360 (1951) 190 (1954) 582 221 229 251 266 344 523 558 1470 2010
2020-08-02 13:30 3.15 744 3360 (1951) 190 (1954) 582 221 229 251 266 344 523 558 1470 2010
2020-08-02 12:30 3.14 739 3360 (1951) 190 (1954) 582 221 229 251 266 344 523 558 1470 2010
2020-08-02 11:30 3.14 739 3360 (1951) 190 (1954) 582 221 229 251 266 344 523 558 1470 2010
2020-08-02 10:30 3.15 744 3360 (1951) 190 (1954) 582 221 229 251 266 344 523 558 1470 2010
2020-08-02 09:30 3.15 744 3360 (1951) 190 (1954) 582 221 229 251 266 344 523 558 1470 2010
2020-08-02 08:30 3.16 748 3360 (1951) 190 (1954) 582 221 229 251 266 344 523 558 1470 2010
2020-08-02 07:30 3.14 739 3360 (1951) 190 (1954) 582 221 229 251 266 344 523 558 1470 2010
2020-08-02 06:30 3.17 753 3360 (1951) 190 (1954) 582 221 229 251 266 344 523 558 1470 2010
2020-08-02 05:30 3.16 748 3360 (1951) 190 (1954) 582 221 229 251 266 344 523 558 1470 2010
2020-08-02 04:30 3.15 744 3360 (1951) 190 (1954) 582 221 229 251 266 344 523 558 1470 2010
2020-08-02 03:30 3.16 748 3360 (1951) 190 (1954) 582 221 229 251 266 344 523 558 1470 2010
2020-08-02 02:30 3.16 748 3360 (1951) 190 (1954) 582 221 229 251 266 344 523 558 1470 2010
2020-08-02 01:30 3.16 748 3360 (1951) 190 (1954) 582 221 229 251 266 344 523 558 1470 2010
2020-08-02 00:30 3.17 753 3360 (1951) 190 (1954) 582 221 229 251 266 344 523 558 1470 2010
2020-08-01 23:30 3.16 748 3440 (1951) 194 (1954) 590 220 229 251 263 359 505 573 1480 1970
2020-08-01 22:30 3.17 753 3440 (1951) 194 (1954) 590 220 229 251 263 359 505 573 1480 1970
2020-08-01 21:30 3.17 753 3440 (1951) 194 (1954) 590 220 229 251 263 359 505 573 1480 1970
2020-08-01 20:30 3.16 748 3440 (1951) 194 (1954) 590 220 229 251 263 359 505 573 1480 1970
2020-08-01 19:30 3.17 753 3440 (1951) 194 (1954) 590 220 229 251 263 359 505 573 1480 1970
2020-08-01 18:30 3.19 763 3440 (1951) 194 (1954) 590 220 229 251 263 359 505 573 1480 1970
2020-08-01 17:30 3.19 763 3440 (1951) 194 (1954) 590 220 229 251 263 359 505 573 1480 1970
2020-08-01 16:30 3.20 767 3440 (1951) 194 (1954) 590 220 229 251 263 359 505 573 1480 1970
2020-08-01 15:30 3.20 767 3440 (1951) 194 (1954) 590 220 229 251 263 359 505 573 1480 1970
2020-08-01 14:30 3.21 772 3440 (1951) 194 (1954) 590 220 229 251 263 359 505 573 1480 1970
2020-08-01 13:30 3.21 772 3440 (1951) 194 (1954) 590 220 229 251 263 359 505 573 1480 1970
2020-08-01 12:30 3.22 777 3440 (1951) 194 (1954) 590 220 229 251 263 359 505 573 1480 1970
2020-08-01 11:30 3.23 782 3440 (1951) 194 (1954) 590 220 229 251 263 359 505 573 1480 1970
2020-08-01 10:30 3.25 791 3440 (1951) 194 (1954) 590 220 229 251 263 359 505 573 1480 1970
2020-08-01 09:30 3.27 801 3440 (1951) 194 (1954) 590 220 229 251 263 359 505 573 1480 1970
2020-08-01 08:30 3.27 801 3440 (1951) 194 (1954) 590 220 229 251 263 359 505 573 1480 1970
2020-08-01 07:30 3.29 811 3440 (1951) 194 (1954) 590 220 229 251 263 359 505 573 1480 1970
2020-08-01 06:30 3.31 821 3440 (1951) 194 (1954) 590 220 229 251 263 359 505 573 1480 1970
2020-08-01 05:30 3.35 840 3440 (1951) 194 (1954) 590 220 229 251 263 359 505 573 1480 1970
2020-08-01 04:30 3.39 860 3440 (1951) 194 (1954) 590 220 229 251 263 359 505 573 1480 1970
2020-08-01 03:30 3.42 875 3440 (1951) 194 (1954) 590 220 229 251 263 359 505 573 1480 1970
2020-08-01 02:30 3.47 900 3440 (1951) 194 (1954) 590 220 229 251 263 359 505 573 1480 1970
2020-08-01 01:30 3.49 911 3440 (1951) 194 (1954) 590 220 229 251 263 359 505 573 1480 1970
2020-08-01 00:30 3.52 926 3440 (1951) 194 (1954) 590 220 229 251 263 359 505 573 1480 1970
2020-07-31 23:30 3.48 906 3130 (1951) 198 (1954) 597 221 228 253 280 373 531 661 1610 1950
2020-07-31 22:30 3.42 875 3130 (1951) 198 (1954) 597 221 228 253 280 373 531 661 1610 1950
2020-07-31 21:30 3.24 787 3130 (1951) 198 (1954) 597 221 228 253 280 373 531 661 1610 1950
2020-07-31 20:30 3.20 767 3130 (1951) 198 (1954) 597 221 228 253 280 373 531 661 1610 1950
2020-07-31 19:30 3.19 763 3130 (1951) 198 (1954) 597 221 228 253 280 373 531 661 1610 1950
2020-07-31 18:30 3.17 753 3130 (1951) 198 (1954) 597 221 228 253 280 373 531 661 1610 1950
2020-07-31 17:30 3.15 744 3130 (1951) 198 (1954) 597 221 228 253 280 373 531 661 1610 1950
2020-07-31 16:30 3.13 734 3130 (1951) 198 (1954) 597 221 228 253 280 373 531 661 1610 1950
2020-07-31 15:30 3.12 730 3130 (1951) 198 (1954) 597 221 228 253 280 373 531 661 1610 1950
2020-07-31 14:30 3.12 730 3130 (1951) 198 (1954) 597 221 228 253 280 373 531 661 1610 1950
2020-07-31 13:30 3.07 706 3130 (1951) 198 (1954) 597 221 228 253 280 373 531 661 1610 1950
2020-07-31 12:30 3.06 702 3130 (1951) 198 (1954) 597 221 228 253 280 373 531 661 1610 1950
2020-07-31 11:30 3.06 702 3130 (1951) 198 (1954) 597 221 228 253 280 373 531 661 1610 1950
2020-07-31 10:30 3.05 697 3130 (1951) 198 (1954) 597 221 228 253 280 373 531 661 1610 1950
2020-07-31 09:30 3.04 693 3130 (1951) 198 (1954) 597 221 228 253 280 373 531 661 1610 1950
2020-07-31 08:30 3.06 702 3130 (1951) 198 (1954) 597 221 228 253 280 373 531 661 1610 1950
2020-07-31 07:30 3.05 697 3130 (1951) 198 (1954) 597 221 228 253 280 373 531 661 1610 1950
2020-07-31 06:30 3.04 693 3130 (1951) 198 (1954) 597 221 228 253 280 373 531 661 1610 1950
2020-07-31 05:30 3.05 697 3130 (1951) 198 (1954) 597 221 228 253 280 373 531 661 1610 1950
2020-07-31 04:30 3.06 702 3130 (1951) 198 (1954) 597 221 228 253 280 373 531 661 1610 1950
2020-07-31 03:30 3.05 697 3130 (1951) 198 (1954) 597 221 228 253 280 373 531 661 1610 1950
2020-07-31 02:30 3.05 697 3130 (1951) 198 (1954) 597 221 228 253 280 373 531 661 1610 1950
2020-07-31 01:30 3.05 697 3130 (1951) 198 (1954) 597 221 228 253 280 373 531 661 1610 1950
2020-07-31 00:30 3.06 702 3130 (1951) 198 (1954) 597 221 228 253 280 373 531 661 1610 1950
2020-07-30 23:30 3.05 697 2980 (1951) 193 (1962) 543 221 227 249 275 367 507 548 1280 1900
2020-07-30 22:30 3.05 697 2980 (1951) 193 (1962) 543 221 227 249 275 367 507 548 1280 1900
2020-07-30 21:30 3.05 697 2980 (1951) 193 (1962) 543 221 227 249 275 367 507 548 1280 1900
2020-07-30 20:30 3.04 693 2980 (1951) 193 (1962) 543 221 227 249 275 367 507 548 1280 1900
2020-07-30 19:30 3.03 688 2980 (1951) 193 (1962) 543 221 227 249 275 367 507 548 1280 1900
2020-07-30 18:30 3.04 693 2980 (1951) 193 (1962) 543 221 227 249 275 367 507 548 1280 1900
2020-07-30 17:30 3.03 688 2980 (1951) 193 (1962) 543 221 227 249 275 367 507 548 1280 1900
2020-07-30 16:30 3.03 688 2980 (1951) 193 (1962) 543 221 227 249 275 367 507 548 1280 1900
2020-07-30 15:30 3.02 683 2980 (1951) 193 (1962) 543 221 227 249 275 367 507 548 1280 1900
2020-07-30 14:30 3.00 674 2980 (1951) 193 (1962) 543 221 227 249 275 367 507 548 1280 1900
2020-07-30 13:30 3.00 674 2980 (1951) 193 (1962) 543 221 227 249 275 367 507 548 1280 1900
2020-07-30 12:30 2.97 661 2980 (1951) 193 (1962) 543 221 227 249 275 367 507 548 1280 1900
2020-07-30 11:30 2.96 656 2980 (1951) 193 (1962) 543 221 227 249 275 367 507 548 1280 1900
2020-07-30 10:30 2.96 656 2980 (1951) 193 (1962) 543 221 227 249 275 367 507 548 1280 1900
2020-07-30 09:30 2.97 661 2980 (1951) 193 (1962) 543 221 227 249 275 367 507 548 1280 1900
2020-07-30 08:30 2.98 665 2980 (1951) 193 (1962) 543 221 227 249 275 367 507 548 1280 1900
2020-07-30 07:30 2.97 661 2980 (1951) 193 (1962) 543 221 227 249 275 367 507 548 1280 1900
2020-07-30 06:30 2.98 665 2980 (1951) 193 (1962) 543 221 227 249 275 367 507 548 1280 1900
2020-07-30 05:30 3.00 674 2980 (1951) 193 (1962) 543 221 227 249 275 367 507 548 1280 1900
2020-07-30 04:30 3.01 679 2980 (1951) 193 (1962) 543 221 227 249 275 367 507 548 1280 1900
2020-07-30 03:30 2.98 665 2980 (1951) 193 (1962) 543 221 227 249 275 367 507 548 1280 1900
2020-07-30 02:30 2.93 643 2980 (1951) 193 (1962) 543 221 227 249 275 367 507 548 1280 1900
2020-07-30 01:30 2.92 638 2980 (1951) 193 (1962) 543 221 227 249 275 367 507 548 1280 1900
2020-07-30 00:30 2.93 643 2980 (1951) 193 (1962) 543 221 227 249 275 367 507 548 1280 1900
2020-07-29 23:30 2.94 647 3060 (1957) 190 (1962) 572 222 229 251 273 373 455 601 1340 2120
2020-07-29 22:30 2.95 652 3060 (1957) 190 (1962) 572 222 229 251 273 373 455 601 1340 2120
2020-07-29 21:30 2.97 661 3060 (1957) 190 (1962) 572 222 229 251 273 373 455 601 1340 2120
2020-07-29 20:30 2.99 670 3060 (1957) 190 (1962) 572 222 229 251 273 373 455 601 1340 2120
2020-07-29 19:30 3.02 683 3060 (1957) 190 (1962) 572 222 229 251 273 373 455 601 1340 2120
2020-07-29 18:30 3.02 683 3060 (1957) 190 (1962) 572 222 229 251 273 373 455 601 1340 2120
2020-07-29 17:30 3.04 693 3060 (1957) 190 (1962) 572 222 229 251 273 373 455 601 1340 2120
2020-07-29 16:30 3.04 693 3060 (1957) 190 (1962) 572 222 229 251 273 373 455 601 1340 2120
2020-07-29 15:30 3.03 688 3060 (1957) 190 (1962) 572 222 229 251 273 373 455 601 1340 2120
2020-07-29 14:30 3.05 697 3060 (1957) 190 (1962) 572 222 229 251 273 373 455 601 1340 2120
2020-07-29 13:30 3.04 693 3060 (1957) 190 (1962) 572 222 229 251 273 373 455 601 1340 2120
2020-07-29 12:30 3.05 697 3060 (1957) 190 (1962) 572 222 229 251 273 373 455 601 1340 2120
2020-07-29 11:30 3.04 693 3060 (1957) 190 (1962) 572 222 229 251 273 373 455 601 1340 2120
2020-07-29 10:30 3.04 693 3060 (1957) 190 (1962) 572 222 229 251 273 373 455 601 1340 2120
2020-07-29 09:30 3.04 693 3060 (1957) 190 (1962) 572 222 229 251 273 373 455 601 1340 2120
2020-07-29 08:30 3.04 693 3060 (1957) 190 (1962) 572 222 229 251 273 373 455 601 1340 2120
2020-07-29 07:30 3.03 688 3060 (1957) 190 (1962) 572 222 229 251 273 373 455 601 1340 2120
2020-07-29 06:30 3.04 693 3060 (1957) 190 (1962) 572 222 229 251 273 373 455 601 1340 2120
2020-07-29 05:30 3.04 693 3060 (1957) 190 (1962) 572 222 229 251 273 373 455 601 1340 2120
2020-07-29 04:30 3.04 693 3060 (1957) 190 (1962) 572 222 229 251 273 373 455 601 1340 2120
2020-07-29 03:30 3.03 688 3060 (1957) 190 (1962) 572 222 229 251 273 373 455 601 1340 2120
2020-07-29 02:30 3.03 688 3060 (1957) 190 (1962) 572 222 229 251 273 373 455 601 1340 2120
2020-07-29 01:30 3.02 683 3060 (1957) 190 (1962) 572 222 229 251 273 373 455 601 1340 2120
2020-07-29 00:30 3.03 688 3060 (1957) 190 (1962) 572 222 229 251 273 373 455 601 1340 2120
2020-07-28 23:30 3.03 688 3790 (1957) 190 (1962) 610 221 229 247 259 378 523 758 1500 2390
2020-07-28 22:30 3.03 688 3790 (1957) 190 (1962) 610 221 229 247 259 378 523 758 1500 2390
2020-07-28 21:30 3.02 683 3790 (1957) 190 (1962) 610 221 229 247 259 378 523 758 1500 2390
2020-07-28 20:30 3.00 674 3790 (1957) 190 (1962) 610 221 229 247 259 378 523 758 1500 2390
2020-07-28 19:30 3.01 679 3790 (1957) 190 (1962) 610 221 229 247 259 378 523 758 1500 2390
2020-07-28 18:30 3.00 674 3790 (1957) 190 (1962) 610 221 229 247 259 378 523 758 1500 2390
2020-07-28 17:30 2.99 670 3790 (1957) 190 (1962) 610 221 229 247 259 378 523 758 1500 2390
2020-07-28 16:30 2.98 665 3790 (1957) 190 (1962) 610 221 229 247 259 378 523 758 1500 2390
2020-07-28 15:30 2.96 656 3790 (1957) 190 (1962) 610 221 229 247 259 378 523 758 1500 2390
2020-07-28 14:30 2.95 652 3790 (1957) 190 (1962) 610 221 229 247 259 378 523 758 1500 2390
2020-07-28 13:30 2.90 630 3790 (1957) 190 (1962) 610 221 229 247 259 378 523 758 1500 2390
2020-07-28 12:30 2.87 616 3790 (1957) 190 (1962) 610 221 229 247 259 378 523 758 1500 2390
2020-07-28 11:30 2.86 612 3790 (1957) 190 (1962) 610 221 229 247 259 378 523 758 1500 2390
2020-07-28 10:30 2.86 612 3790 (1957) 190 (1962) 610 221 229 247 259 378 523 758 1500 2390
2020-07-28 09:30 2.85 608 3790 (1957) 190 (1962) 610 221 229 247 259 378 523 758 1500 2390
2020-07-28 08:30 2.85 608 3790 (1957) 190 (1962) 610 221 229 247 259 378 523 758 1500 2390
2020-07-28 07:30 2.85 608 3790 (1957) 190 (1962) 610 221 229 247 259 378 523 758 1500 2390
2020-07-28 06:30 2.86 612 3790 (1957) 190 (1962) 610 221 229 247 259 378 523 758 1500 2390
2020-07-28 05:30 2.87 616 3790 (1957) 190 (1962) 610 221 229 247 259 378 523 758 1500 2390
2020-07-28 04:30 2.89 625 3790 (1957) 190 (1962) 610 221 229 247 259 378 523 758 1500 2390
2020-07-28 03:30 2.91 634 3790 (1957) 190 (1962) 610 221 229 247 259 378 523 758 1500 2390
2020-07-28 02:30 2.91 634 3790 (1957) 190 (1962) 610 221 229 247 259 378 523 758 1500 2390
2020-07-28 01:30 2.90 630 3790 (1957) 190 (1962) 610 221 229 247 259 378 523 758 1500 2390
2020-07-28 00:30 2.86 612 3790 (1957) 190 (1962) 610 221 229 247 259 378 523 758 1500 2390
2020-07-27 23:30 2.88 621 3480 (1957) 190 (1962) 624 221 234 254 260 372 588 765 1500 2860
2020-07-27 22:30 2.91 634 3480 (1957) 190 (1962) 624 221 234 254 260 372 588 765 1500 2860
2020-07-27 21:30 2.88 621 3480 (1957) 190 (1962) 624 221 234 254 260 372 588 765 1500 2860
2020-07-27 20:30 2.90 630 3480 (1957) 190 (1962) 624 221 234 254 260 372 588 765 1500 2860
2020-07-27 19:30 2.94 647 3480 (1957) 190 (1962) 624 221 234 254 260 372 588 765 1500 2860
2020-07-27 18:30 2.95 652 3480 (1957) 190 (1962) 624 221 234 254 260 372 588 765 1500 2860
2020-07-27 17:30 2.98 665 3480 (1957) 190 (1962) 624 221 234 254 260 372 588 765 1500 2860
2020-07-27 16:30 2.96 656 3480 (1957) 190 (1962) 624 221 234 254 260 372 588 765 1500 2860
2020-07-27 15:30 2.92 638 3480 (1957) 190 (1962) 624 221 234 254 260 372 588 765 1500 2860
2020-07-27 14:30 2.88 621 3480 (1957) 190 (1962) 624 221 234 254 260 372 588 765 1500 2860
2020-07-27 13:30 2.82 595 3480 (1957) 190 (1962) 624 221 234 254 260 372 588 765 1500 2860
2020-07-27 12:30 2.77 573 3480 (1957) 190 (1962) 624 221 234 254 260 372 588 765 1500 2860
2020-07-27 11:30 2.73 556 3480 (1957) 190 (1962) 624 221 234 254 260 372 588 765 1500 2860
2020-07-27 10:30 2.72 552 3480 (1957) 190 (1962) 624 221 234 254 260 372 588 765 1500 2860
2020-07-27 09:30 2.73 556 3480 (1957) 190 (1962) 624 221 234 254 260 372 588 765 1500 2860
2020-07-27 08:30 2.73 556 3480 (1957) 190 (1962) 624 221 234 254 260 372 588 765 1500 2860
2020-07-27 07:30 2.73 556 3480 (1957) 190 (1962) 624 221 234 254 260 372 588 765 1500 2860
2020-07-27 06:30 2.73 556 3480 (1957) 190 (1962) 624 221 234 254 260 372 588 765 1500 2860
2020-07-27 05:30 2.73 556 3480 (1957) 190 (1962) 624 221 234 254 260 372 588 765 1500 2860
2020-07-27 04:30 2.72 552 3480 (1957) 190 (1962) 624 221 234 254 260 372 588 765 1500 2860
2020-07-27 03:30 2.74 560 3480 (1957) 190 (1962) 624 221 234 254 260 372 588 765 1500 2860
2020-07-27 02:30 2.73 556 3480 (1957) 190 (1962) 624 221 234 254 260 372 588 765 1500 2860
2020-07-27 01:30 2.72 552 3480 (1957) 190 (1962) 624 221 234 254 260 372 588 765 1500 2860
2020-07-27 00:30 2.73 556 3480 (1957) 190 (1962) 624 221 234 254 260 372 588 765 1500 2860
2020-07-26 23:30 2.73 556 3560 (1957) 191 (1965) 657 211 232 253 261 390 651 790 1570 3120
2020-07-26 22:30 2.73 556 3560 (1957) 191 (1965) 657 211 232 253 261 390 651 790 1570 3120
2020-07-26 21:30 2.73 556 3560 (1957) 191 (1965) 657 211 232 253 261 390 651 790 1570 3120
2020-07-26 20:30 2.72 552 3560 (1957) 191 (1965) 657 211 232 253 261 390 651 790 1570 3120
2020-07-26 19:30 2.73 556 3560 (1957) 191 (1965) 657 211 232 253 261 390 651 790 1570 3120
2020-07-26 18:30 2.74 560 3560 (1957) 191 (1965) 657 211 232 253 261 390 651 790 1570 3120
2020-07-26 17:30 2.74 560 3560 (1957) 191 (1965) 657 211 232 253 261 390 651 790 1570 3120
2020-07-26 16:30 2.73 556 3560 (1957) 191 (1965) 657 211 232 253 261 390 651 790 1570 3120
2020-07-26 15:30 2.73 556 3560 (1957) 191 (1965) 657 211 232 253 261 390 651 790 1570 3120
2020-07-26 14:30 2.73 556 3560 (1957) 191 (1965) 657 211 232 253 261 390 651 790 1570 3120
2020-07-26 13:30 2.73 556 3560 (1957) 191 (1965) 657 211 232 253 261 390 651 790 1570 3120
2020-07-26 12:30 2.73 556 3560 (1957) 191 (1965) 657 211 232 253 261 390 651 790 1570 3120
2020-07-26 11:30 2.74 560 3560 (1957) 191 (1965) 657 211 232 253 261 390 651 790 1570 3120
2020-07-26 10:30 2.73 556 3560 (1957) 191 (1965) 657 211 232 253 261 390 651 790 1570 3120
2020-07-26 09:30 2.73 556 3560 (1957) 191 (1965) 657 211 232 253 261 390 651 790 1570 3120
2020-07-26 08:30 2.74 560 3560 (1957) 191 (1965) 657 211 232 253 261 390 651 790 1570 3120
2020-07-26 07:30 2.74 560 3560 (1957) 191 (1965) 657 211 232 253 261 390 651 790 1570 3120
2020-07-26 06:30 2.74 560 3560 (1957) 191 (1965) 657 211 232 253 261 390 651 790 1570 3120
2020-07-26 05:30 2.74 560 3560 (1957) 191 (1965) 657 211 232 253 261 390 651 790 1570 3120
2020-07-26 04:30 2.75 565 3560 (1957) 191 (1965) 657 211 232 253 261 390 651 790 1570 3120
2020-07-26 03:30 2.75 565 3560 (1957) 191 (1965) 657 211 232 253 261 390 651 790 1570 3120
2020-07-26 02:30 2.75 565 3560 (1957) 191 (1965) 657 211 232 253 261 390 651 790 1570 3120
2020-07-26 01:30 2.75 565 3560 (1957) 191 (1965) 657 211 232 253 261 390 651 790 1570 3120
2020-07-26 00:30 2.75 565 3560 (1957) 191 (1965) 657 211 232 253 261 390 651 790 1570 3120
2020-07-25 23:30 2.75 565 3560 (1957) 192 (1965) 662 216 236 253 257 378 680 742 1540 3070
2020-07-25 22:30 2.75 565 3560 (1957) 192 (1965) 662 216 236 253 257 378 680 742 1540 3070
2020-07-25 21:30 2.74 560 3560 (1957) 192 (1965) 662 216 236 253 257 378 680 742 1540 3070
2020-07-25 20:30 2.74 560 3560 (1957) 192 (1965) 662 216 236 253 257 378 680 742 1540 3070
2020-07-25 19:30 2.74 560 3560 (1957) 192 (1965) 662 216 236 253 257 378 680 742 1540 3070
2020-07-25 18:30 2.74 560 3560 (1957) 192 (1965) 662 216 236 253 257 378 680 742 1540 3070
2020-07-25 17:30 2.74 560 3560 (1957) 192 (1965) 662 216 236 253 257 378 680 742 1540 3070
2020-07-25 16:30 2.74 560 3560 (1957) 192 (1965) 662 216 236 253 257 378 680 742 1540 3070
2020-07-25 15:30 2.74 560 3560 (1957) 192 (1965) 662 216 236 253 257 378 680 742 1540 3070
2020-07-25 14:30 2.74 560 3560 (1957) 192 (1965) 662 216 236 253 257 378 680 742 1540 3070
2020-07-25 13:30 2.74 560 3560 (1957) 192 (1965) 662 216 236 253 257 378 680 742 1540 3070
2020-07-25 12:30 2.75 565 3560 (1957) 192 (1965) 662 216 236 253 257 378 680 742 1540 3070
2020-07-25 11:30 2.76 569 3560 (1957) 192 (1965) 662 216 236 253 257 378 680 742 1540 3070
2020-07-25 10:30 2.75 565 3560 (1957) 192 (1965) 662 216 236 253 257 378 680 742 1540 3070
2020-07-25 09:30 2.75 565 3560 (1957) 192 (1965) 662 216 236 253 257 378 680 742 1540 3070
2020-07-25 08:30 2.75 565 3560 (1957) 192 (1965) 662 216 236 253 257 378 680 742 1540 3070
2020-07-25 07:30 2.76 569 3560 (1957) 192 (1965) 662 216 236 253 257 378 680 742 1540 3070
2020-07-25 06:30 2.76 569 3560 (1957) 192 (1965) 662 216 236 253 257 378 680 742 1540 3070
2020-07-25 05:30 2.77 573 3560 (1957) 192 (1965) 662 216 236 253 257 378 680 742 1540 3070
2020-07-25 04:30 2.77 573 3560 (1957) 192 (1965) 662 216 236 253 257 378 680 742 1540 3070
2020-07-25 03:30 2.77 573 3560 (1957) 192 (1965) 662 216 236 253 257 378 680 742 1540 3070
2020-07-25 02:30 2.77 573 3560 (1957) 192 (1965) 662 216 236 253 257 378 680 742 1540 3070
2020-07-25 01:30 2.77 573 3560 (1957) 192 (1965) 662 216 236 253 257 378 680 742 1540 3070
2020-07-25 00:30 2.77 573 3560 (1957) 192 (1965) 662 216 236 253 257 378 680 742 1540 3070
2020-07-24 23:30 2.78 577 3560 (1957) 192 (1965) 664 216 243 258 267 360 653 903 1640 2930
2020-07-24 22:30 2.79 582 3560 (1957) 192 (1965) 664 216 243 258 267 360 653 903 1640 2930
2020-07-24 21:30 2.79 582 3560 (1957) 192 (1965) 664 216 243 258 267 360 653 903 1640 2930
2020-07-24 20:30 2.80 586 3560 (1957) 192 (1965) 664 216 243 258 267 360 653 903 1640 2930
2020-07-24 19:30 2.81 590 3560 (1957) 192 (1965) 664 216 243 258 267 360 653 903 1640 2930
2020-07-24 18:30 2.83 599 3560 (1957) 192 (1965) 664 216 243 258 267 360 653 903 1640 2930
2020-07-24 17:30 2.84 603 3560 (1957) 192 (1965) 664 216 243 258 267 360 653 903 1640 2930
2020-07-24 16:30 2.87 616 3560 (1957) 192 (1965) 664 216 243 258 267 360 653 903 1640 2930
2020-07-24 15:30 2.90 630 3560 (1957) 192 (1965) 664 216 243 258 267 360 653 903 1640 2930
2020-07-24 14:30 2.92 638 3560 (1957) 192 (1965) 664 216 243 258 267 360 653 903 1640 2930
2020-07-24 13:30 2.98 665 3560 (1957) 192 (1965) 664 216 243 258 267 360 653 903 1640 2930
2020-07-24 12:30 3.02 683 3560 (1957) 192 (1965) 664 216 243 258 267 360 653 903 1640 2930
2020-07-24 11:30 3.08 711 3560 (1957) 192 (1965) 664 216 243 258 267 360 653 903 1640 2930
2020-07-24 10:30 3.10 720 3560 (1957) 192 (1965) 664 216 243 258 267 360 653 903 1640 2930
2020-07-24 09:30 3.11 725 3560 (1957) 192 (1965) 664 216 243 258 267 360 653 903 1640 2930
2020-07-24 08:30 3.12 730 3560 (1957) 192 (1965) 664 216 243 258 267 360 653 903 1640 2930
2020-07-24 07:30 3.11 725 3560 (1957) 192 (1965) 664 216 243 258 267 360 653 903 1640 2930
2020-07-24 06:30 3.11 725 3560 (1957) 192 (1965) 664 216 243 258 267 360 653 903 1640 2930
2020-07-24 05:30 3.13 734 3560 (1957) 192 (1965) 664 216 243 258 267 360 653 903 1640 2930
2020-07-24 04:30 3.11 725 3560 (1957) 192 (1965) 664 216 243 258 267 360 653 903 1640 2930
2020-07-24 03:30 3.12 730 3560 (1957) 192 (1965) 664 216 243 258 267 360 653 903 1640 2930
2020-07-24 02:30 3.12 730 3560 (1957) 192 (1965) 664 216 243 258 267 360 653 903 1640 2930
2020-07-24 01:30 3.10 720 3560 (1957) 192 (1965) 664 216 243 258 267 360 653 903 1640 2930
2020-07-24 00:30 3.12 730 3560 (1957) 192 (1965) 664 216 243 258 267 360 653 903 1640 2930
2020-07-23 23:30 3.12 730 3560 (1957) 185 (1962) 696 217 235 261 269 358 805 992 1840 3140
2020-07-23 22:30 3.12 730 3560 (1957) 185 (1962) 696 217 235 261 269 358 805 992 1840 3140
2020-07-23 21:30 3.10 720 3560 (1957) 185 (1962) 696 217 235 261 269 358 805 992 1840 3140
2020-07-23 20:30 3.11 725 3560 (1957) 185 (1962) 696 217 235 261 269 358 805 992 1840 3140
2020-07-23 19:30 3.12 730 3560 (1957) 185 (1962) 696 217 235 261 269 358 805 992 1840 3140
2020-07-23 18:30 3.14 739 3560 (1957) 185 (1962) 696 217 235 261 269 358 805 992 1840 3140
2020-07-23 17:30 3.08 711 3560 (1957) 185 (1962) 696 217 235 261 269 358 805 992 1840 3140
2020-07-23 16:30 3.09 716 3560 (1957) 185 (1962) 696 217 235 261 269 358 805 992 1840 3140
2020-07-23 15:30 3.09 716 3560 (1957) 185 (1962) 696 217 235 261 269 358 805 992 1840 3140
2020-07-23 14:30 3.08 711 3560 (1957) 185 (1962) 696 217 235 261 269 358 805 992 1840 3140
2020-07-23 13:30 3.07 706 3560 (1957) 185 (1962) 696 217 235 261 269 358 805 992 1840 3140
2020-07-23 12:30 3.06 702 3560 (1957) 185 (1962) 696 217 235 261 269 358 805 992 1840 3140
2020-07-23 11:30 3.07 706 3560 (1957) 185 (1962) 696 217 235 261 269 358 805 992 1840 3140
2020-07-23 10:30 3.06 702 3560 (1957) 185 (1962) 696 217 235 261 269 358 805 992 1840 3140
2020-07-23 09:30 3.05 697 3560 (1957) 185 (1962) 696 217 235 261 269 358 805 992 1840 3140
2020-07-23 08:30 3.05 697 3560 (1957) 185 (1962) 696 217 235 261 269 358 805 992 1840 3140
2020-07-23 07:30 3.06 702 3560 (1957) 185 (1962) 696 217 235 261 269 358 805 992 1840 3140
2020-07-23 06:30 3.04 693 3560 (1957) 185 (1962) 696 217 235 261 269 358 805 992 1840 3140
2020-07-23 05:30 3.05 697 3560 (1957) 185 (1962) 696 217 235 261 269 358 805 992 1840 3140
2020-07-23 04:30 3.06 702 3560 (1957) 185 (1962) 696 217 235 261 269 358 805 992 1840 3140
2020-07-23 03:30 3.06 702 3560 (1957) 185 (1962) 696 217 235 261 269 358 805 992 1840 3140
2020-07-23 02:30 3.07 706 3560 (1957) 185 (1962) 696 217 235 261 269 358 805 992 1840 3140
2020-07-23 01:30 3.07 706 3560 (1957) 185 (1962) 696 217 235 261 269 358 805 992 1840 3140
2020-07-23 00:30 3.08 711 3560 (1957) 185 (1962) 696 217 235 261 269 358 805 992 1840 3140
2020-07-22 23:30 3.09 716 3630 (1957) 187 (1962) 744 214 230 256 276 386 958 1230 1830 3140
2020-07-22 22:30 3.09 716 3630 (1957) 187 (1962) 744 214 230 256 276 386 958 1230 1830 3140
2020-07-22 21:30 3.10 720 3630 (1957) 187 (1962) 744 214 230 256 276 386 958 1230 1830 3140
2020-07-22 20:30 3.10 720 3630 (1957) 187 (1962) 744 214 230 256 276 386 958 1230 1830 3140
2020-07-22 19:30 3.09 716 3630 (1957) 187 (1962) 744 214 230 256 276 386 958 1230 1830 3140
2020-07-22 18:30 3.08 711 3630 (1957) 187 (1962) 744 214 230 256 276 386 958 1230 1830 3140
2020-07-22 17:30 3.08 711 3630 (1957) 187 (1962) 744 214 230 256 276 386 958 1230 1830 3140
2020-07-22 16:30 3.04 693 3630 (1957) 187 (1962) 744 214 230 256 276 386 958 1230 1830 3140
2020-07-22 15:30 3.02 683 3630 (1957) 187 (1962) 744 214 230 256 276 386 958 1230 1830 3140
2020-07-22 14:30 2.99 670 3630 (1957) 187 (1962) 744 214 230 256 276 386 958 1230 1830 3140
2020-07-22 13:30 2.98 665 3630 (1957) 187 (1962) 744 214 230 256 276 386 958 1230 1830 3140
2020-07-22 12:30 2.98 665 3630 (1957) 187 (1962) 744 214 230 256 276 386 958 1230 1830 3140
2020-07-22 11:30 2.96 656 3630 (1957) 187 (1962) 744 214 230 256 276 386 958 1230 1830 3140
2020-07-22 10:30 2.95 652 3630 (1957) 187 (1962) 744 214 230 256 276 386 958 1230 1830 3140
2020-07-22 09:30 2.95 652 3630 (1957) 187 (1962) 744 214 230 256 276 386 958 1230 1830 3140
2020-07-22 08:30 2.96 656 3630 (1957) 187 (1962) 744 214 230 256 276 386 958 1230 1830 3140
2020-07-22 07:30 2.96 656 3630 (1957) 187 (1962) 744 214 230 256 276 386 958 1230 1830 3140
2020-07-22 06:30 2.94 647 3630 (1957) 187 (1962) 744 214 230 256 276 386 958 1230 1830 3140
2020-07-22 05:30 2.95 652 3630 (1957) 187 (1962) 744 214 230 256 276 386 958 1230 1830 3140
2020-07-22 04:30 2.95 652 3630 (1957) 187 (1962) 744 214 230 256 276 386 958 1230 1830 3140
2020-07-22 03:30 2.94 647 3630 (1957) 187 (1962) 744 214 230 256 276 386 958 1230 1830 3140
2020-07-22 02:30 2.95 652 3630 (1957) 187 (1962) 744 214 230 256 276 386 958 1230 1830 3140
2020-07-22 01:30 2.96 656 3630 (1957) 187 (1962) 744 214 230 256 276 386 958 1230 1830 3140
2020-07-22 00:30 2.96 656 3630 (1957) 187 (1962) 744 214 230 256 276 386 958 1230 1830 3140
2020-07-21 23:30 2.97 661 3480 (1957) 190 (1962) 735 216 232 258 284 395 912 1090 1840 3150
2020-07-21 22:30 2.96 656 3480 (1957) 190 (1962) 735 216 232 258 284 395 912 1090 1840 3150
2020-07-21 21:30 2.95 652 3480 (1957) 190 (1962) 735 216 232 258 284 395 912 1090 1840 3150
2020-07-21 20:30 2.96 656 3480 (1957) 190 (1962) 735 216 232 258 284 395 912 1090 1840 3150
2020-07-21 19:30 2.96 656 3480 (1957) 190 (1962) 735 216 232 258 284 395 912 1090 1840 3150
2020-07-21 18:30 2.95 652 3480 (1957) 190 (1962) 735 216 232 258 284 395 912 1090 1840 3150
2020-07-21 17:30 2.95 652 3480 (1957) 190 (1962) 735 216 232 258 284 395 912 1090 1840 3150
2020-07-21 16:30 2.94 647 3480 (1957) 190 (1962) 735 216 232 258 284 395 912 1090 1840 3150
2020-07-21 15:30 2.95 652 3480 (1957) 190 (1962) 735 216 232 258 284 395 912 1090 1840 3150
2020-07-21 14:30 2.96 656 3480 (1957) 190 (1962) 735 216 232 258 284 395 912 1090 1840 3150
2020-07-21 13:30 2.95 652 3480 (1957) 190 (1962) 735 216 232 258 284 395 912 1090 1840 3150
2020-07-21 12:30 2.96 656 3480 (1957) 190 (1962) 735 216 232 258 284 395 912 1090 1840 3150
2020-07-21 11:30 2.94 647 3480 (1957) 190 (1962) 735 216 232 258 284 395 912 1090 1840 3150
2020-07-21 10:30 2.95 652 3480 (1957) 190 (1962) 735 216 232 258 284 395 912 1090 1840 3150
2020-07-21 09:30 2.95 652 3480 (1957) 190 (1962) 735 216 232 258 284 395 912 1090 1840 3150
2020-07-21 08:30 2.94 647 3480 (1957) 190 (1962) 735 216 232 258 284 395 912 1090 1840 3150
2020-07-21 07:30 2.96 656 3480 (1957) 190 (1962) 735 216 232 258 284 395 912 1090 1840 3150
2020-07-21 06:30 2.95 652 3480 (1957) 190 (1962) 735 216 232 258 284 395 912 1090 1840 3150
2020-07-21 05:30 2.94 647 3480 (1957) 190 (1962) 735 216 232 258 284 395 912 1090 1840 3150
2020-07-21 04:30 2.94 647 3480 (1957) 190 (1962) 735 216 232 258 284 395 912 1090 1840 3150
2020-07-21 03:30 2.93 643 3480 (1957) 190 (1962) 735 216 232 258 284 395 912 1090 1840 3150
2020-07-21 02:30 2.94 647 3480 (1957) 190 (1962) 735 216 232 258 284 395 912 1090 1840 3150
2020-07-21 01:30 2.94 647 3480 (1957) 190 (1962) 735 216 232 258 284 395 912 1090 1840 3150
2020-07-21 00:30 2.93 643 3480 (1957) 190 (1962) 735 216 232 258 284 395 912 1090 1840 3150
2020-07-20 23:30 2.94 647 3480 (1957) 193 (1962) 743 221 226 249 257 402 790 1160 1810 3140
2020-07-20 22:30 2.94 647 3480 (1957) 193 (1962) 743 221 226 249 257 402 790 1160 1810 3140
2020-07-20 21:30 2.93 643 3480 (1957) 193 (1962) 743 221 226 249 257 402 790 1160 1810 3140
2020-07-20 20:30 2.92 638 3480 (1957) 193 (1962) 743 221 226 249 257 402 790 1160 1810 3140
2020-07-20 19:30 2.92 638 3480 (1957) 193 (1962) 743 221 226 249 257 402 790 1160 1810 3140
2020-07-20 18:30 2.89 625 3480 (1957) 193 (1962) 743 221 226 249 257 402 790 1160 1810 3140
2020-07-20 17:30 2.87 616 3480 (1957) 193 (1962) 743 221 226 249 257 402 790 1160 1810 3140
2020-07-20 16:30 2.85 608 3480 (1957) 193 (1962) 743 221 226 249 257 402 790 1160 1810 3140
2020-07-20 15:30 2.83 599 3480 (1957) 193 (1962) 743 221 226 249 257 402 790 1160 1810 3140
2020-07-20 14:30 2.80 586 3480 (1957) 193 (1962) 743 221 226 249 257 402 790 1160 1810 3140
2020-07-20 13:30 2.74 560 3480 (1957) 193 (1962) 743 221 226 249 257 402 790 1160 1810 3140
2020-07-20 12:30 2.70 544 3480 (1957) 193 (1962) 743 221 226 249 257 402 790 1160 1810 3140
2020-07-20 11:30 2.65 523 3480 (1957) 193 (1962) 743 221 226 249 257 402 790 1160 1810 3140
2020-07-20 10:30 2.64 519 3480 (1957) 193 (1962) 743 221 226 249 257 402 790 1160 1810 3140
2020-07-20 09:30 2.64 519 3480 (1957) 193 (1962) 743 221 226 249 257 402 790 1160 1810 3140
2020-07-20 08:30 2.64 519 3480 (1957) 193 (1962) 743 221 226 249 257 402 790 1160 1810 3140
2020-07-20 07:30 2.65 523 3480 (1957) 193 (1962) 743 221 226 249 257 402 790 1160 1810 3140
2020-07-20 06:30 2.65 523 3480 (1957) 193 (1962) 743 221 226 249 257 402 790 1160 1810 3140
2020-07-20 05:30 2.65 523 3480 (1957) 193 (1962) 743 221 226 249 257 402 790 1160 1810 3140
2020-07-20 04:30 2.64 519 3480 (1957) 193 (1962) 743 221 226 249 257 402 790 1160 1810 3140
2020-07-20 03:30 2.64 519 3480 (1957) 193 (1962) 743 221 226 249 257 402 790 1160 1810 3140
2020-07-20 02:30 2.64 519 3480 (1957) 193 (1962) 743 221 226 249 257 402 790 1160 1810 3140
2020-07-20 01:30 2.65 523 3480 (1957) 193 (1962) 743 221 226 249 257 402 790 1160 1810 3140
2020-07-20 00:30 2.65 523 3480 (1957) 193 (1962) 743 221 226 249 257 402 790 1160 1810 3140
2020-07-19 23:30 2.64 519 3340 (1957) 188 (1954) 733 197 229 248 255 388 777 1110 1870 3140
2020-07-19 22:30 2.64 519 3340 (1957) 188 (1954) 733 197 229 248 255 388 777 1110 1870 3140
2020-07-19 21:30 2.64 519 3340 (1957) 188 (1954) 733 197 229 248 255 388 777 1110 1870 3140
2020-07-19 20:30 2.64 519 3340 (1957) 188 (1954) 733 197 229 248 255 388 777 1110 1870 3140
2020-07-19 19:30 2.64 519 3340 (1957) 188 (1954) 733 197 229 248 255 388 777 1110 1870 3140
2020-07-19 18:30 2.64 519 3340 (1957) 188 (1954) 733 197 229 248 255 388 777 1110 1870 3140
2020-07-19 17:30 2.65 523 3340 (1957) 188 (1954) 733 197 229 248 255 388 777 1110 1870 3140
2020-07-19 16:30 2.65 523 3340 (1957) 188 (1954) 733 197 229 248 255 388 777 1110 1870 3140
2020-07-19 15:30 2.65 523 3340 (1957) 188 (1954) 733 197 229 248 255 388 777 1110 1870 3140
2020-07-19 14:30 2.65 523 3340 (1957) 188 (1954) 733 197 229 248 255 388 777 1110 1870 3140
2020-07-19 13:30 2.66 527 3340 (1957) 188 (1954) 733 197 229 248 255 388 777 1110 1870 3140
2020-07-19 12:30 2.65 523 3340 (1957) 188 (1954) 733 197 229 248 255 388 777 1110 1870 3140
2020-07-19 11:30 2.65 523 3340 (1957) 188 (1954) 733 197 229 248 255 388 777 1110 1870 3140
2020-07-19 10:30 2.65 523 3340 (1957) 188 (1954) 733 197 229 248 255 388 777 1110 1870 3140
2020-07-19 09:30 2.65 523 3340 (1957) 188 (1954) 733 197 229 248 255 388 777 1110 1870 3140
2020-07-19 08:30 2.65 523 3340 (1957) 188 (1954) 733 197 229 248 255 388 777 1110 1870 3140
2020-07-19 07:30 2.65 523 3340 (1957) 188 (1954) 733 197 229 248 255 388 777 1110 1870 3140
2020-07-19 06:30 2.66 527 3340 (1957) 188 (1954) 733 197 229 248 255 388 777 1110 1870 3140
2020-07-19 05:30 2.65 523 3340 (1957) 188 (1954) 733 197 229 248 255 388 777 1110 1870 3140
2020-07-19 04:30 2.66 527 3340 (1957) 188 (1954) 733 197 229 248 255 388 777 1110 1870 3140
2020-07-19 03:30 2.66 527 3340 (1957) 188 (1954) 733 197 229 248 255 388 777 1110 1870 3140
2020-07-19 02:30 2.66 527 3340 (1957) 188 (1954) 733 197 229 248 255 388 777 1110 1870 3140
2020-07-19 01:30 2.65 523 3340 (1957) 188 (1954) 733 197 229 248 255 388 777 1110 1870 3140
2020-07-19 00:30 2.65 523 3340 (1957) 188 (1954) 733 197 229 248 255 388 777 1110 1870 3140
2020-07-18 23:30 2.65 523 3380 (2017) 190 (1954) 748 215 235 255 262 397 766 1160 1900 3140
2020-07-18 22:30 2.65 523 3380 (2017) 190 (1954) 748 215 235 255 262 397 766 1160 1900 3140
2020-07-18 21:30 2.65 523 3380 (2017) 190 (1954) 748 215 235 255 262 397 766 1160 1900 3140
2020-07-18 20:30 2.66 527 3380 (2017) 190 (1954) 748 215 235 255 262 397 766 1160 1900 3140
2020-07-18 19:30 2.65 523 3380 (2017) 190 (1954) 748 215 235 255 262 397 766 1160 1900 3140
2020-07-18 18:30 2.65 523 3380 (2017) 190 (1954) 748 215 235 255 262 397 766 1160 1900 3140
2020-07-18 17:30 2.66 527 3380 (2017) 190 (1954) 748 215 235 255 262 397 766 1160 1900 3140
2020-07-18 16:30 2.67 531 3380 (2017) 190 (1954) 748 215 235 255 262 397 766 1160 1900 3140
2020-07-18 15:30 2.67 531 3380 (2017) 190 (1954) 748 215 235 255 262 397 766 1160 1900 3140
2020-07-18 14:30 2.67 531 3380 (2017) 190 (1954) 748 215 235 255 262 397 766 1160 1900 3140
2020-07-18 13:30 2.67 531 3380 (2017) 190 (1954) 748 215 235 255 262 397 766 1160 1900 3140
2020-07-18 12:30 2.67 531 3380 (2017) 190 (1954) 748 215 235 255 262 397 766 1160 1900 3140
2020-07-18 11:30 2.68 535 3380 (2017) 190 (1954) 748 215 235 255 262 397 766 1160 1900 3140
2020-07-18 10:30 2.68 535 3380 (2017) 190 (1954) 748 215 235 255 262 397 766 1160 1900 3140
2020-07-18 09:30 2.67 531 3380 (2017) 190 (1954) 748 215 235 255 262 397 766 1160 1900 3140
2020-07-18 08:30 2.67 531 3380 (2017) 190 (1954) 748 215 235 255 262 397 766 1160 1900 3140
2020-07-18 07:30 2.68 535 3380 (2017) 190 (1954) 748 215 235 255 262 397 766 1160 1900 3140
2020-07-18 06:30 2.68 535 3380 (2017) 190 (1954) 748 215 235 255 262 397 766 1160 1900 3140
2020-07-18 05:30 2.68 535 3380 (2017) 190 (1954) 748 215 235 255 262 397 766 1160 1900 3140
2020-07-18 04:30 2.68 535 3380 (2017) 190 (1954) 748 215 235 255 262 397 766 1160 1900 3140
2020-07-18 03:30 2.68 535 3380 (2017) 190 (1954) 748 215 235 255 262 397 766 1160 1900 3140
2020-07-18 02:30 2.69 539 3380 (2017) 190 (1954) 748 215 235 255 262 397 766 1160 1900 3140
2020-07-18 01:30 2.69 539 3380 (2017) 190 (1954) 748 215 235 255 262 397 766 1160 1900 3140
2020-07-18 00:30 2.70 544 3380 (2017) 190 (1954) 748 215 235 255 262 397 766 1160 1900 3140
2020-07-17 23:30 2.70 544 3430 (2017) 192 (1954) 708 206 239 259 277 421 696 894 1730 3270
2020-07-17 22:30 2.71 548 3430 (2017) 192 (1954) 708 206 239 259 277 421 696 894 1730 3270
2020-07-17 21:30 552 3430 (2017) 192 (1954) 708 206 239 259 277 421 696 894 1730 3270
2020-07-17 20:30 2.72 552 3430 (2017) 192 (1954) 708 206 239 259 277 421 696 894 1730 3270
2020-07-17 19:30 2.74 560 3430 (2017) 192 (1954) 708 206 239 259 277 421 696 894 1730 3270
2020-07-17 18:30 2.75 565 3430 (2017) 192 (1954) 708 206 239 259 277 421 696 894 1730 3270
2020-07-17 17:30 2.76 569 3430 (2017) 192 (1954) 708 206 239 259 277 421 696 894 1730 3270
2020-07-17 16:30 2.76 569 3430 (2017) 192 (1954) 708 206 239 259 277 421 696 894 1730 3270
2020-07-17 15:30 2.75 565 3430 (2017) 192 (1954) 708 206 239 259 277 421 696 894 1730 3270
2020-07-17 14:30 2.74 560 3430 (2017) 192 (1954) 708 206 239 259 277 421 696 894 1730 3270
2020-07-17 13:30 2.74 560 3430 (2017) 192 (1954) 708 206 239 259 277 421 696 894 1730 3270
2020-07-17 12:30 2.71 548 3430 (2017) 192 (1954) 708 206 239 259 277 421 696 894 1730 3270
2020-07-17 11:30 2.73 556 3430 (2017) 192 (1954) 708 206 239 259 277 421 696 894 1730 3270
2020-07-17 10:30 2.73 556 3430 (2017) 192 (1954) 708 206 239 259 277 421 696 894 1730 3270
2020-07-17 09:30 2.74 560 3430 (2017) 192 (1954) 708 206 239 259 277 421 696 894 1730 3270
2020-07-17 08:30 2.73 556 3430 (2017) 192 (1954) 708 206 239 259 277 421 696 894 1730 3270
2020-07-17 07:30 2.73 556 3430 (2017) 192 (1954) 708 206 239 259 277 421 696 894 1730 3270
2020-07-17 06:30 2.73 556 3430 (2017) 192 (1954) 708 206 239 259 277 421 696 894 1730 3270
2020-07-17 05:30 2.73 556 3430 (2017) 192 (1954) 708 206 239 259 277 421 696 894 1730 3270
2020-07-17 04:30 2.74 560 3430 (2017) 192 (1954) 708 206 239 259 277 421 696 894 1730 3270
2020-07-17 03:30 2.73 556 3430 (2017) 192 (1954) 708 206 239 259 277 421 696 894 1730 3270
2020-07-17 02:30 2.73 556 3430 (2017) 192 (1954) 708 206 239 259 277 421 696 894 1730 3270
2020-07-17 01:30 2.72 552 3430 (2017) 192 (1954) 708 206 239 259 277 421 696 894 1730 3270
2020-07-17 00:30 2.73 556 3430 (2017) 192 (1954) 708 206 239 259 277 421 696 894 1730 3270
2020-07-16 23:30 2.73 556 3650 (2015) 194 (1954) 696 207 239 262 305 422 667 838 1580 2800
2020-07-16 22:30 2.73 556 3650 (2015) 194 (1954) 696 207 239 262 305 422 667 838 1580 2800
2020-07-16 21:30 2.73 556 3650 (2015) 194 (1954) 696 207 239 262 305 422 667 838 1580 2800
2020-07-16 20:30 2.73 556 3650 (2015) 194 (1954) 696 207 239 262 305 422 667 838 1580 2800
2020-07-16 19:30 2.73 556 3650 (2015) 194 (1954) 696 207 239 262 305 422 667 838 1580 2800
2020-07-16 18:30 2.74 560 3650 (2015) 194 (1954) 696 207 239 262 305 422 667 838 1580 2800
2020-07-16 17:30 2.74 560 3650 (2015) 194 (1954) 696 207 239 262 305 422 667 838 1580 2800
2020-07-16 16:30 2.74 560 3650 (2015) 194 (1954) 696 207 239 262 305 422 667 838 1580 2800
2020-07-16 15:30 2.74 560 3650 (2015) 194 (1954) 696 207 239 262 305 422 667 838 1580 2800
2020-07-16 14:30 2.74 560 3650 (2015) 194 (1954) 696 207 239 262 305 422 667 838 1580 2800
2020-07-16 13:30 2.74 560 3650 (2015) 194 (1954) 696 207 239 262 305 422 667 838 1580 2800
2020-07-16 12:30 2.74 560 3650 (2015) 194 (1954) 696 207 239 262 305 422 667 838 1580 2800
2020-07-16 11:30 2.74 560 3650 (2015) 194 (1954) 696 207 239 262 305 422 667 838 1580 2800
2020-07-16 10:30 2.74 560 3650 (2015) 194 (1954) 696 207 239 262 305 422 667 838 1580 2800
2020-07-16 09:30 2.73 556 3650 (2015) 194 (1954) 696 207 239 262 305 422 667 838 1580 2800
2020-07-16 08:30 2.74 560 3650 (2015) 194 (1954) 696 207 239 262 305 422 667 838 1580 2800
2020-07-16 07:30 2.74 560 3650 (2015) 194 (1954) 696 207 239 262 305 422 667 838 1580 2800
2020-07-16 06:30 2.74 560 3650 (2015) 194 (1954) 696 207 239 262 305 422 667 838 1580 2800
2020-07-16 05:30 2.74 560 3650 (2015) 194 (1954) 696 207 239 262 305 422 667 838 1580 2800
2020-07-16 04:30 2.75 565 3650 (2015) 194 (1954) 696 207 239 262 305 422 667 838 1580 2800
2020-07-16 03:30 2.74 560 3650 (2015) 194 (1954) 696 207 239 262 305 422 667 838 1580 2800
2020-07-16 02:30 2.74 560 3650 (2015) 194 (1954) 696 207 239 262 305 422 667 838 1580 2800
2020-07-16 01:30 2.75 565 3650 (2015) 194 (1954) 696 207 239 262 305 422 667 838 1580 2800
2020-07-16 00:30 2.75 565 3650 (2015) 194 (1954) 696 207 239 262 305 422 667 838 1580 2800
2020-07-15 23:30 2.75 565 3720 (2015) 203 (1954) 721 209 236 264 269 473 628 928 1790 2810
2020-07-15 22:30 2.75 565 3720 (2015) 203 (1954) 721 209 236 264 269 473 628 928 1790 2810
2020-07-15 21:30 2.75 565 3720 (2015) 203 (1954) 721 209 236 264 269 473 628 928 1790 2810
2020-07-15 20:30 2.75 565 3720 (2015) 203 (1954) 721 209 236 264 269 473 628 928 1790 2810
2020-07-15 19:30 2.75 565 3720 (2015) 203 (1954) 721 209 236 264 269 473 628 928 1790 2810
2020-07-15 18:30 2.75 565 3720 (2015) 203 (1954) 721 209 236 264 269 473 628 928 1790 2810
2020-07-15 17:30 2.75 565 3720 (2015) 203 (1954) 721 209 236 264 269 473 628 928 1790 2810
2020-07-15 16:30 2.76 569 3720 (2015) 203 (1954) 721 209 236 264 269 473 628 928 1790 2810
2020-07-15 15:30 2.77 573 3720 (2015) 203 (1954) 721 209 236 264 269 473 628 928 1790 2810
2020-07-15 14:30 2.77 573 3720 (2015) 203 (1954) 721 209 236 264 269 473 628 928 1790 2810
2020-07-15 13:30 2.78 577 3720 (2015) 203 (1954) 721 209 236 264 269 473 628 928 1790 2810
2020-07-15 12:30 2.79 582 3720 (2015) 203 (1954) 721 209 236 264 269 473 628 928 1790 2810
2020-07-15 11:30 2.80 586 3720 (2015) 203 (1954) 721 209 236 264 269 473 628 928 1790 2810
2020-07-15 10:30 2.80 586 3720 (2015) 203 (1954) 721 209 236 264 269 473 628 928 1790 2810
2020-07-15 09:30 2.80 586 3720 (2015) 203 (1954) 721 209 236 264 269 473 628 928 1790 2810
2020-07-15 08:30 2.80 586 3720 (2015) 203 (1954) 721 209 236 264 269 473 628 928 1790 2810
2020-07-15 07:30 2.80 586 3720 (2015) 203 (1954) 721 209 236 264 269 473 628 928 1790 2810
2020-07-15 06:30 2.80 586 3720 (2015) 203 (1954) 721 209 236 264 269 473 628 928 1790 2810
2020-07-15 05:30 2.80 586 3720 (2015) 203 (1954) 721 209 236 264 269 473 628 928 1790 2810
2020-07-15 04:30 2.80 586 3720 (2015) 203 (1954) 721 209 236 264 269 473 628 928 1790 2810
2020-07-15 03:30 2.80 586 3720 (2015) 203 (1954) 721 209 236 264 269 473 628 928 1790 2810
2020-07-15 02:30 2.80 586 3720 (2015) 203 (1954) 721 209 236 264 269 473 628 928 1790 2810
2020-07-15 01:30 2.80 586 3720 (2015) 203 (1954) 721 209 236 264 269 473 628 928 1790 2810
2020-07-15 00:30 2.80 586 3720 (2015) 203 (1954) 721 209 236 264 269 473 628 928 1790 2810
2020-07-14 23:30 2.80 586 3780 (2015) 203 (1954) 729 208 238 258 274 397 741 912 1800 2890
2020-07-14 22:30 2.79 582 3780 (2015) 203 (1954) 729 208 238 258 274 397 741 912 1800 2890
2020-07-14 21:30 2.80 586 3780 (2015) 203 (1954) 729 208 238 258 274 397 741 912 1800 2890
2020-07-14 20:30 2.80 586 3780 (2015) 203 (1954) 729 208 238 258 274 397 741 912 1800 2890
2020-07-14 19:30 2.79 582 3780 (2015) 203 (1954) 729 208 238 258 274 397 741 912 1800 2890
2020-07-14 18:30 2.80 586 3780 (2015) 203 (1954) 729 208 238 258 274 397 741 912 1800 2890
2020-07-14 17:30 2.79 582 3780 (2015) 203 (1954) 729 208 238 258 274 397 741 912 1800 2890
2020-07-14 16:30 2.81 590 3780 (2015) 203 (1954) 729 208 238 258 274 397 741 912 1800 2890
2020-07-14 15:30 2.80 586 3780 (2015) 203 (1954) 729 208 238 258 274 397 741 912 1800 2890
2020-07-14 14:30 2.81 590 3780 (2015) 203 (1954) 729 208 238 258 274 397 741 912 1800 2890
2020-07-14 13:30 2.80 586 3780 (2015) 203 (1954) 729 208 238 258 274 397 741 912 1800 2890
2020-07-14 12:30 2.81 590 3780 (2015) 203 (1954) 729 208 238 258 274 397 741 912 1800 2890
2020-07-14 11:30 2.80 586 3780 (2015) 203 (1954) 729 208 238 258 274 397 741 912 1800 2890
2020-07-14 10:30 2.81 590 3780 (2015) 203 (1954) 729 208 238 258 274 397 741 912 1800 2890
2020-07-14 09:30 2.80 586 3780 (2015) 203 (1954) 729 208 238 258 274 397 741 912 1800 2890
2020-07-14 08:30 2.80 586 3780 (2015) 203 (1954) 729 208 238 258 274 397 741 912 1800 2890
2020-07-14 07:30 2.81 590 3780 (2015) 203 (1954) 729 208 238 258 274 397 741 912 1800 2890
2020-07-14 06:30 2.81 590 3780 (2015) 203 (1954) 729 208 238 258 274 397 741 912 1800 2890
2020-07-14 05:30 2.81 590 3780 (2015) 203 (1954) 729 208 238 258 274 397 741 912 1800 2890
2020-07-14 04:30 2.82 595 3780 (2015) 203 (1954) 729 208 238 258 274 397 741 912 1800 2890
2020-07-14 03:30 2.82 595 3780 (2015) 203 (1954) 729 208 238 258 274 397 741 912 1800 2890
2020-07-14 02:30 2.82 595 3780 (2015) 203 (1954) 729 208 238 258 274 397 741 912 1800 2890
2020-07-14 01:30 2.81 590 3780 (2015) 203 (1954) 729 208 238 258 274 397 741 912 1800 2890
2020-07-14 00:30 2.81 590 3780 (2015) 203 (1954) 729 208 238 258 274 397 741 912 1800 2890

A total of 750 rows are displayed for years 1949 through 2019.